createdAt,value
2023-01-19T00:01:24.604Z,43.50
2023-01-19T15:59:53.326Z,3.65
2023-01-19T16:02:21.280Z,3.15
2023-01-19T16:04:49.929Z,2.17
2023-01-19T16:07:17.801Z,2.70
2023-01-19T16:09:45.705Z,2.28
2023-01-19T16:12:13.577Z,2.20
2023-01-19T16:14:41.518Z,1.90
2023-01-19T16:17:10.711Z,1.80
2023-01-19T16:19:38.574Z,1.50
2023-01-19T16:22:06.560Z,1.60
2023-01-19T16:24:34.429Z,1.45
2023-01-19T16:27:03.899Z,1.50
2023-01-19T16:29:32.107Z,1.30
2023-01-19T16:32:00.067Z,0.98
2023-01-19T16:34:29.431Z,1.13
2023-01-19T16:36:57.295Z,1.10
2023-01-19T16:39:25.249Z,1.08
2023-01-19T16:41:53.147Z,1.00
2023-01-19T16:44:21.025Z,0.90
2023-01-19T16:46:49.989Z,0.93
2023-01-19T16:49:19.607Z,1.05
2023-01-19T16:51:49.422Z,1.00
2023-01-19T16:54:20.146Z,1.08
2023-01-19T16:56:48.203Z,0.80
2023-01-19T16:59:17.734Z,0.88
2023-01-19T17:01:46.653Z,1.40
2023-01-19T17:04:15.128Z,1.20
2023-01-19T17:06:43.168Z,1.70
2023-01-19T17:09:12.422Z,1.00
2023-01-19T17:11:41.089Z,1.02
2023-01-19T17:14:12.807Z,1.90
2023-01-19T17:16:40.939Z,1.80
2023-01-19T17:19:09.703Z,2.65
2023-01-19T17:21:37.666Z,2.63
2023-01-19T17:24:06.004Z,2.60
2023-01-19T17:26:35.183Z,2.67
2023-01-19T17:29:04.829Z,3.10
2023-01-19T17:31:33.238Z,2.60
2023-01-19T17:34:01.299Z,2.42
2023-01-19T17:36:30.612Z,2.22
2023-01-19T17:39:00.445Z,2.50
2023-01-19T17:41:31.216Z,2.63
2023-01-19T17:44:01.780Z,2.35
2023-01-19T17:46:30.609Z,2.72
2023-01-19T17:49:00.512Z,2.95
2023-01-19T17:51:29.370Z,2.55
2023-01-19T17:53:57.818Z,2.15
2023-01-19T17:56:29.396Z,2.60
2023-01-19T17:58:57.929Z,2.30
2023-01-19T18:01:28.784Z,2.10
2023-01-19T18:03:57.580Z,2.42
2023-01-19T18:06:25.812Z,1.77
2023-01-19T18:08:54.036Z,1.92
2023-01-19T18:11:22.907Z,1.95
2023-01-19T18:13:52.133Z,1.80
2023-01-19T18:16:23.342Z,1.70
2023-01-19T18:18:53.570Z,1.90
2023-01-19T18:21:23.027Z,1.48
2023-01-19T18:23:51.727Z,1.75
2023-01-19T18:26:21.295Z,3.17
2023-01-19T18:28:50.205Z,4.30
2023-01-19T18:31:19.832Z,6.28
2023-01-19T18:33:48.532Z,8.30
2023-01-19T18:36:18.600Z,7.88
2023-01-19T18:38:46.820Z,8.75
2023-01-19T18:41:17.074Z,10.63
2023-01-19T18:43:46.567Z,10.57
2023-01-19T18:46:15.191Z,10.55
2023-01-19T18:48:43.197Z,13.27
2023-01-19T18:51:12.540Z,12.73
2023-01-19T18:53:42.064Z,12.80
2023-01-19T18:56:13.006Z,12.52
2023-01-19T18:58:41.464Z,13.50
2023-01-19T19:01:19.746Z,14.45
2023-01-19T19:03:48.078Z,16.05
2023-01-19T19:06:16.807Z,16.45
2023-01-19T19:08:45.989Z,17.40
2023-01-19T19:11:14.292Z,14.48
2023-01-19T19:13:42.364Z,14.52
2023-01-19T19:16:12.992Z,11.95
2023-01-19T19:18:41.169Z,12.65
2023-01-19T19:21:11.375Z,12.48
2023-01-19T19:23:39.639Z,11.32
2023-01-19T19:26:10.674Z,10.77
2023-01-19T19:28:39.563Z,10.98
2023-01-19T19:31:09.573Z,10.95
2023-01-19T19:33:40.294Z,11.10
2023-01-19T19:36:10.075Z,11.27
2023-01-19T19:38:39.338Z,11.63
2023-01-19T19:41:09.948Z,10.82
2023-01-19T19:43:38.372Z,10.82
2023-01-19T19:46:08.448Z,13.05
2023-01-19T19:48:39.001Z,14.85
2023-01-19T19:51:18.211Z,14.20
2023-01-19T19:53:49.073Z,13.95
2023-01-19T19:56:21.883Z,12.60
2023-01-19T19:58:50.197Z,15.27
2023-01-19T20:01:20.040Z,16.17
2023-01-19T20:03:48.148Z,17.00
2023-01-19T20:06:17.878Z,17.20
2023-01-19T20:08:45.785Z,16.38
2023-01-19T20:11:15.382Z,18.13
2023-01-19T20:13:47.481Z,20.15
2023-01-19T20:16:17.493Z,23.05
2023-01-19T20:18:50.790Z,17.65
2023-01-19T20:21:21.165Z,19.75
2023-01-19T20:23:50.582Z,20.65
2023-01-19T20:26:21.897Z,18.08
2023-01-19T20:28:51.127Z,18.48
2023-01-19T20:31:20.778Z,18.85
2023-01-19T20:33:50.395Z,19.48
2023-01-19T20:36:19.621Z,17.38
2023-01-19T20:38:47.506Z,19.42
2023-01-19T20:41:16.710Z,18.15
2023-01-19T20:43:44.541Z,18.00
2023-01-19T20:46:14.116Z,19.10
2023-01-19T20:48:42.001Z,19.98
2023-01-19T20:51:11.825Z,17.95
2023-01-19T20:53:41.354Z,17.98
2023-01-19T20:56:12.810Z,18.00
2023-01-19T20:58:41.066Z,18.65
2023-01-19T21:01:15.590Z,20.38
2023-01-19T21:03:43.720Z,21.02
2023-01-19T21:06:12.221Z,20.27
2023-01-19T21:08:40.475Z,19.17
2023-01-19T21:11:08.759Z,16.13
2023-01-19T21:13:37.065Z,14.73
2023-01-19T21:16:05.934Z,15.43
2023-01-19T21:18:35.187Z,16.02
2023-01-19T21:21:03.076Z,16.30
2023-01-19T21:23:30.913Z,16.50
2023-01-19T21:26:00.470Z,18.10
2023-01-19T21:28:29.177Z,15.40
2023-01-19T21:30:57.152Z,15.90
2023-01-19T21:33:25.228Z,15.82
2023-01-19T21:35:56.217Z,15.60
2023-01-19T21:38:26.698Z,15.32
2023-01-19T21:40:54.836Z,15.68
2023-01-19T21:43:23.257Z,16.27
2023-01-19T21:45:51.144Z,15.65
2023-01-19T21:48:19.655Z,18.35
2023-01-19T21:50:56.566Z,15.48
2023-01-19T21:53:25.781Z,17.52
2023-01-19T21:55:53.655Z,17.92
2023-01-19T21:58:23.605Z,19.70
2023-01-19T22:00:51.783Z,18.42
2023-01-19T22:03:19.794Z,20.60
2023-01-19T22:05:47.729Z,21.35
2023-01-19T22:08:15.622Z,19.98
2023-01-19T22:10:44.875Z,20.70
2023-01-19T22:13:12.756Z,22.75
2023-01-19T22:15:40.852Z,21.98
2023-01-19T22:18:08.737Z,20.77
2023-01-19T22:20:36.582Z,18.90
2023-01-19T22:23:04.492Z,20.27
2023-01-19T22:25:34.038Z,19.20
2023-01-19T22:28:03.263Z,21.08
2023-01-19T22:30:31.193Z,19.05
2023-01-19T22:32:59.187Z,19.60
2023-01-19T22:35:27.106Z,20.95
2023-01-19T22:37:55.018Z,20.73
2023-01-19T22:40:22.904Z,22.73
2023-01-19T22:42:50.840Z,20.70
2023-01-19T22:45:21.753Z,22.80
2023-01-19T22:47:49.600Z,23.92
2023-01-19T22:50:17.606Z,22.38
2023-01-19T22:52:45.453Z,22.88
2023-01-19T22:55:13.535Z,21.60
2023-01-19T22:57:41.498Z,20.98
2023-01-19T23:00:10.598Z,23.67
2023-01-19T23:02:39.905Z,24.23
2023-01-19T23:05:08.543Z,20.23
2023-01-19T23:07:36.400Z,21.50
2023-01-19T23:10:04.388Z,22.98
2023-01-19T23:12:32.261Z,23.13
2023-01-19T23:15:00.129Z,24.17
2023-01-19T23:17:28.065Z,22.27
2023-01-19T23:19:57.471Z,23.77
2023-01-19T23:22:25.337Z,28.40
2023-01-19T23:24:53.234Z,25.65
2023-01-19T23:27:21.136Z,28.20
2023-01-19T23:29:48.971Z,22.25
2023-01-19T23:32:16.836Z,35.40
2023-01-19T23:34:44.664Z,36.35
2023-01-19T23:37:13.864Z,34.83
2023-01-19T23:39:41.752Z,35.90
2023-01-19T23:42:09.767Z,37.03
2023-01-19T23:44:37.649Z,39.90
2023-01-19T23:47:05.555Z,39.60
2023-01-19T23:49:33.419Z,44.47
2023-01-19T23:52:01.275Z,38.38
2023-01-19T23:54:30.519Z,29.90
2023-01-19T23:56:58.419Z,27.27
2023-01-19T23:59:26.321Z,25.92
